Time;durP1;ratioP1;P1;durP2;ratioP2;P2;SDS_P1;SDS_P2;PMS_P1;PMS_P2;Temp;Humidity;BMP_temperature;BMP_pressure;BME280_temperature;BME280_humidity;BME280_pressure;Samples;Min_cycle;Max_cycle;Signal;HPM_P1;HPM_P2
2021/06/22 00:01:00;;;;;;;15.20;13.87;;;;;;;20.87;76.67;98117.95;124827;1092;64390;-79
2021/06/22 00:03:28;;;;;;;15.47;14.07;;;;;;;20.81;76.94;98116.84;124832;1092;64335;-80
2021/06/22 00:05:56;;;;;;;15.97;14.47;;;;;;;20.74;76.61;98109.67;124812;1093;64268;-79
2021/06/22 00:08:23;;;;;;;17.30;15.60;;;;;;;20.71;76.94;98118.17;124871;1093;64264;-80
2021/06/22 00:10:51;;;;;;;17.10;15.30;;;;;;;20.67;76.78;98111.44;124879;1093;64293;-80
2021/06/22 00:13:21;;;;;;;16.27;14.70;;;;;;;20.64;77.28;98106.41;124741;1093;64210;-80
2021/06/22 00:16:06;;;;;;;16.73;15.17;;;;;;;20.61;77.14;98111.17;124876;1093;64415;-80
2021/06/22 00:18:33;;;;;;;16.33;14.90;;;;;;;20.70;77.52;98116.50;124925;1092;64257;-79
2021/06/22 00:21:00;;;;;;;14.63;13.17;;;;;;;20.72;77.05;98111.72;124919;1093;64314;-77
2021/06/22 00:23:28;;;;;;;14.93;13.53;;;;;;;20.70;76.97;98111.09;124875;1093;64267;-82
2021/06/22 00:25:56;;;;;;;16.30;14.63;;;;;;;20.64;76.98;98117.23;124900;1092;64284;-82
2021/06/22 00:28:23;;;;;;;15.63;14.03;;;;;;;20.57;77.49;98117.17;124916;1093;64341;-82
2021/06/22 00:30:51;;;;;;;14.73;13.23;;;;;;;20.57;77.81;98118.00;124997;1093;64276;-82
2021/06/22 00:33:18;;;;;;;17.33;14.33;;;;;;;20.54;77.73;98115.67;124873;1093;64341;-82
2021/06/22 00:35:45;;;;;;;16.17;14.57;;;;;;;20.45;77.40;98105.92;124849;1093;64287;-82
2021/06/22 00:38:12;;;;;;;16.93;15.23;;;;;;;20.39;78.05;98115.64;124931;1093;64315;-82
2021/06/22 00:40:40;;;;;;;15.60;14.07;;;;;;;20.40;78.06;98113.77;124892;1093;64307;-82
2021/06/22 00:43:07;;;;;;;16.30;14.60;;;;;;;20.45;78.48;98110.50;124927;1092;64294;-82
2021/06/22 00:45:34;;;;;;;15.50;13.97;;;;;;;20.56;78.72;98105.50;124960;1093;64290;-82
2021/06/22 00:48:03;;;;;;;14.83;13.27;;;;;;;20.62;78.32;98106.61;124904;1093;64308;-82
2021/06/22 00:50:31;;;;;;;13.63;12.40;;;;;;;20.62;78.06;98101.20;124949;1093;64750;-82
2021/06/22 00:53:00;;;;;;;14.13;12.80;;;;;;;20.57;77.88;98114.46;124790;1093;64447;-82
2021/06/22 00:55:29;;;;;;;15.17;13.80;;;;;;;20.40;77.85;98130.00;124966;1093;64329;-82
2021/06/22 00:58:08;;;;;;;15.77;14.23;;;;;;;20.30;78.96;98132.14;125090;1093;64276;-82
2021/06/22 01:00:37;;;;;;;17.93;13.57;;;;;;;20.29;78.94;98125.90;125187;1093;64271;-83
2021/06/22 01:03:05;;;;;;;15.00;13.47;;;;;;;20.27;78.98;98133.35;125145;1093;64287;-82
2021/06/22 01:06:16;;;;;;;16.97;15.10;;;;;;;20.28;78.87;98123.39;125207;1093;64268;-84
2021/06/22 01:08:44;;;;;;;16.00;14.37;;;;;;;20.26;79.17;98120.03;124994;1093;64268;-82
2021/06/22 01:11:11;;;;;;;16.63;14.90;;;;;;;20.29;79.43;98115.08;125036;1093;64191;-83
2021/06/22 01:13:38;;;;;;;16.63;15.03;;;;;;;20.34;79.60;98107.23;124986;1093;64228;-82
2021/06/22 01:16:06;;;;;;;19.60;17.03;;;;;;;20.41;79.70;98104.64;124985;1093;64425;-82
2021/06/22 01:18:33;;;;;;;19.30;17.30;;;;;;;20.47;79.33;98100.34;124945;1093;64395;-82
2021/06/22 01:21:00;;;;;;;17.63;15.93;;;;;;;20.45;78.99;98086.98;124977;1093;64284;-82
2021/06/22 01:23:27;;;;;;;18.27;16.47;;;;;;;20.45;79.23;98089.69;124906;1093;64247;-82
2021/06/22 01:25:55;;;;;;;19.17;17.47;;;;;;;20.44;79.04;98089.89;124856;1093;64210;-81
2021/06/22 01:28:23;;;;;;;19.67;17.73;;;;;;;20.45;79.31;98094.27;124929;1093;64332;-81
2021/06/22 01:30:50;;;;;;;19.60;17.30;;;;;;;20.47;79.21;98092.22;124874;1093;64447;-81
2021/06/22 01:33:18;;;;;;;18.60;16.80;;;;;;;20.38;79.24;98089.61;124820;1093;64191;-82
2021/06/22 01:35:45;;;;;;;17.20;15.47;;;;;;;20.34;79.09;98077.47;124869;1093;64268;-82
2021/06/22 01:38:12;;;;;;;18.03;16.27;;;;;;;20.28;78.92;98080.94;124870;1093;64216;-82
2021/06/22 01:40:45;;;;;;;17.03;15.40;;;;;;;20.29;79.19;98088.02;124859;1093;64794;-81
2021/06/22 01:43:13;;;;;;;17.80;16.10;;;;;;;20.29;79.53;98077.19;124873;1093;64361;-82
2021/06/22 01:45:40;;;;;;;16.35;14.75;;;;;;;20.29;79.13;98087.19;124913;1093;64245;-81
2021/06/22 01:48:08;;;;;;;17.53;15.63;;;;;;;20.17;79.06;98084.12;124929;1093;64287;-81
2021/06/22 01:50:35;;;;;;;18.50;16.50;;;;;;;20.04;79.44;98078.52;124883;1093;64268;-82
2021/06/22 01:53:03;;;;;;;18.10;16.33;;;;;;;19.92;79.63;98080.81;124915;1093;64274;-81
2021/06/22 01:55:43;;;;;;;17.90;16.13;;;;;;;19.93;79.54;98086.05;124921;1093;64705;-81
2021/06/22 01:58:13;;;;;;;18.33;16.40;;;;;;;19.95;80.19;98083.98;124857;1093;64251;-83
2021/06/22 02:00:42;;;;;;;17.80;16.17;;;;;;;20.04;80.21;98090.17;124930;1093;64263;-83
2021/06/22 02:03:15;;;;;;;17.60;15.87;;;;;;;20.02;79.81;98096.78;124955;1093;64281;-84
2021/06/22 02:05:44;;;;;;;14.80;13.33;;;;;;;19.92;79.25;98097.05;124835;1093;64354;-83
2021/06/22 02:08:12;;;;;;;16.93;15.23;;;;;;;19.85;79.78;98104.20;124914;1092;64180;-83
2021/06/22 02:10:39;;;;;;;19.17;16.77;;;;;;;19.72;79.86;98102.98;124847;1093;64278;-81
2021/06/22 02:13:09;;;;;;;17.57;15.87;;;;;;;19.64;79.94;98104.86;124928;1093;64287;-81
2021/06/22 02:15:38;;;;;;;19.03;17.33;;;;;;;19.66;80.00;98100.13;124936;1092;64271;-82
2021/06/22 02:18:07;;;;;;;19.40;17.03;;;;;;;19.73;80.57;98087.59;124943;1093;64283;-82
2021/06/22 02:20:37;;;;;;;19.43;17.55;;;;;;;19.78;80.65;98097.88;124914;1093;64307;-82
2021/06/22 02:23:05;;;;;;;18.15;16.35;;;;;;;19.89;80.73;98092.84;124903;1093;64294;-82
2021/06/22 02:25:33;;;;;;;18.03;16.37;;;;;;;19.92;80.13;98097.05;124799;1093;64730;-82
2021/06/22 02:28:08;;;;;;;17.93;16.23;;;;;;;19.86;80.04;98100.50;124879;1092;64268;-82
2021/06/22 02:30:37;;;;;;;17.13;15.37;;;;;;;19.87;79.92;98113.81;124849;1092;64425;-82
2021/06/22 02:33:04;;;;;;;17.73;15.97;;;;;;;19.81;79.92;98111.85;124957;1093;64408;-82
2021/06/22 02:35:31;;;;;;;17.35;15.60;;;;;;;19.79;80.09;98118.47;124909;1092;64194;-82
2021/06/22 02:37:59;;;;;;;18.73;16.87;;;;;;;19.78;80.13;98111.39;124910;1093;64287;-82
2021/06/22 02:40:28;;;;;;;18.00;16.40;;;;;;;19.73;80.55;98104.66;124918;1093;64248;-82
2021/06/22 02:42:55;;;;;;;17.70;16.10;;;;;;;19.75;80.50;98112.59;124833;1093;64322;-82
2021/06/22 02:45:23;;;;;;;18.37;16.67;;;;;;;19.83;80.79;98120.63;124924;1093;64441;-82
2021/06/22 02:47:50;;;;;;;18.53;16.83;;;;;;;19.92;80.37;98132.20;124876;1093;64249;-81
2021/06/22 02:50:19;;;;;;;18.40;16.57;;;;;;;19.95;80.19;98129.13;124881;1093;64191;-81
2021/06/22 02:52:47;;;;;;;17.47;15.50;;;;;;;19.95;80.17;98134.53;124866;1093;64377;-82
2021/06/22 02:55:18;;;;;;;18.30;16.47;;;;;;;20.00;80.32;98121.30;124850;1093;64276;-81
2021/06/22 02:57:51;;;;;;;19.33;17.43;;;;;;;20.12;80.45;98127.11;124875;1092;64294;-82
2021/06/22 03:00:21;;;;;;;16.10;14.50;;;;;;;20.21;80.11;98133.27;124911;1093;64284;-82
2021/06/22 03:02:50;;;;;;;17.43;15.87;;;;;;;20.23;79.68;98142.05;124892;1093;64287;-81
2021/06/22 03:05:19;;;;;;;17.67;16.07;;;;;;;20.21;79.84;98147.63;124903;1093;64363;-81
2021/06/22 03:07:47;;;;;;;17.53;15.83;;;;;;;20.24;79.77;98141.84;124915;1093;64360;-82
2021/06/22 03:10:17;;;;;;;18.80;16.90;;;;;;;20.33;79.81;98145.33;124871;1093;64313;-82
2021/06/22 03:12:45;;;;;;;19.70;17.67;;;;;;;20.42;79.76;98148.77;124966;1091;64290;-82
2021/06/22 03:15:15;;;;;;;20.17;18.20;;;;;;;20.49;79.57;98149.72;124967;1093;64319;-81
2021/06/22 03:17:42;;;;;;;18.43;16.60;;;;;;;20.56;79.77;98156.94;124922;1093;64268;-81
2021/06/22 03:20:11;;;;;;;19.37;17.67;;;;;;;20.64;79.25;98155.97;124818;1093;64294;-82
2021/06/22 03:22:39;;;;;;;19.00;17.30;;;;;;;20.71;79.39;98158.79;124878;1093;64188;-81
2021/06/22 03:25:09;;;;;;;19.00;17.27;;;;;;;20.80;79.59;98157.64;124827;1093;64297;-82
2021/06/22 03:27:37;;;;;;;19.10;17.33;;;;;;;20.89;79.13;98161.11;124921;1093;64271;-82
2021/06/22 03:30:10;;;;;;;19.07;17.30;;;;;;;21.21;79.46;98157.95;124903;1093;64275;-82
2021/06/22 03:32:39;;;;;;;18.33;16.50;;;;;;;21.94;78.57;98160.59;124889;1093;64693;-82
2021/06/22 03:35:08;;;;;;;16.37;14.97;;;;;;;22.62;77.83;98149.16;124923;1092;64420;-82
2021/06/22 03:37:35;;;;;;;15.65;14.23;;;;;;;23.07;76.44;98149.64;124920;1093;64300;-81
2021/06/22 03:40:05;;;;;;;15.27;14.00;;;;;;;23.39;75.78;98142.63;124842;1092;64266;-82
2021/06/22 03:42:34;;;;;;;16.03;14.53;;;;;;;23.78;74.98;98139.16;124986;1093;64234;-82
2021/06/22 03:45:09;;;;;;;16.57;15.00;;;;;;;23.92;74.35;98141.88;124869;1093;64308;-82
2021/06/22 03:47:36;;;;;;;16.33;14.83;;;;;;;24.12;73.85;98140.00;124965;1093;64460;-82
2021/06/22 03:50:06;;;;;;;14.67;13.23;;;;;;;24.78;72.87;98146.38;124890;1093;64220;-82
2021/06/22 03:52:34;;;;;;;14.97;13.57;;;;;;;25.46;71.25;98140.42;124878;1093;64199;-81
2021/06/22 03:55:02;;;;;;;14.07;12.87;;;;;;;26.05;69.69;98129.10;124897;1093;64268;-81
2021/06/22 03:57:29;;;;;;;14.57;13.17;;;;;;;26.50;68.79;98141.71;124738;1093;64272;-82
2021/06/22 03:59:56;;;;;;;14.20;12.80;;;;;;;26.97;67.62;98143.96;124900;1093;64252;-81
2021/06/22 04:02:23;;;;;;;13.77;12.47;;;;;;;27.49;67.10;98155.27;124747;1093;64267;-81
2021/06/22 04:04:51;;;;;;;13.87;12.67;;;;;;;27.94;65.21;98150.22;124945;1093;64275;-82
2021/06/22 04:07:18;;;;;;;13.43;12.30;;;;;;;28.33;64.24;98153.36;124793;1092;64361;-81
2021/06/22 04:09:45;;;;;;;14.17;12.93;;;;;;;28.67;63.19;98159.08;124908;1093;64313;-81
2021/06/22 04:12:13;;;;;;;14.00;12.60;;;;;;;28.95;62.67;98154.75;124915;1092;64309;-80
2021/06/22 04:14:40;;;;;;;13.00;12.00;;;;;;;29.29;61.40;98159.33;124867;1093;64291;-81
2021/06/22 04:17:07;;;;;;;12.40;11.35;;;;;;;29.65;60.73;98150.95;124880;1093;64213;-81
2021/06/22 04:19:34;;;;;;;12.30;11.17;;;;;;;29.77;60.13;98153.66;124866;1093;64271;-81
2021/06/22 04:22:02;;;;;;;12.93;11.73;;;;;;;29.62;59.98;98152.28;124837;1093;64271;-80
2021/06/22 04:24:29;;;;;;;12.60;11.40;;;;;;;29.74;59.34;98142.08;124880;1093;64447;-81
2021/06/22 04:26:57;;;;;;;13.73;12.33;;;;;;;30.14;58.28;98143.02;124887;1093;64243;-80
2021/06/22 04:29:24;;;;;;;13.97;12.57;;;;;;;30.38;57.63;98149.20;124836;1092;64287;-82
2021/06/22 04:31:52;;;;;;;12.87;11.57;;;;;;;30.40;57.52;98147.03;124812;1093;64248;-79
2021/06/22 04:34:19;;;;;;;12.83;11.80;;;;;;;30.55;56.12;98154.69;124852;1093;64252;-78
2021/06/22 04:36:47;;;;;;;12.77;11.67;;;;;;;30.65;56.32;98156.73;124683;1093;64391;-79
2021/06/22 04:39:14;;;;;;;13.20;11.85;;;;;;;30.46;56.28;98158.94;124778;1093;64702;-80
2021/06/22 04:41:42;;;;;;;13.50;12.40;;;;;;;30.32;56.05;98163.95;124811;1093;64287;-80
2021/06/22 04:44:09;;;;;;;12.73;11.77;;;;;;;30.74;55.54;98158.81;124792;1093;64188;-80
2021/06/22 04:46:37;;;;;;;13.97;12.70;;;;;;;30.98;55.01;98156.68;124779;1093;64264;-80
2021/06/22 04:49:04;;;;;;;13.70;12.50;;;;;;;31.17;54.51;98159.94;124752;1093;64306;-80
2021/06/22 04:51:32;;;;;;;12.37;11.23;;;;;;;31.50;53.74;98158.16;124798;1092;64343;-79
2021/06/22 04:53:59;;;;;;;13.17;12.07;;;;;;;31.73;53.38;98162.53;124785;1093;64293;-80
2021/06/22 04:56:27;;;;;;;14.53;13.27;;;;;;;31.96;52.46;98152.30;124773;1093;64287;-80
2021/06/22 04:58:56;;;;;;;14.03;12.83;;;;;;;32.24;52.11;98156.67;124647;1093;64276;-81
2021/06/22 05:01:27;;;;;;;14.50;13.30;;;;;;;32.67;51.03;98152.84;124930;1093;64399;-82
2021/06/22 05:03:55;;;;;;;12.53;11.60;;;;;;;32.95;50.05;98157.14;124871;1093;64288;-82
2021/06/22 05:06:23;;;;;;;13.37;12.17;;;;;;;33.11;49.11;98160.84;124850;1093;64271;-80
2021/06/22 05:08:50;;;;;;;12.97;11.77;;;;;;;33.07;48.36;98165.22;124855;1093;64294;-80
2021/06/22 05:11:17;;;;;;;12.57;11.50;;;;;;;33.13;48.67;98180.73;124884;1093;64268;-81
2021/06/22 05:13:45;;;;;;;13.40;12.13;;;;;;;32.96;47.98;98172.59;124827;1093;64191;-80
2021/06/22 05:16:12;;;;;;;12.17;11.13;;;;;;;32.88;48.00;98172.28;124877;1093;64312;-81
2021/06/22 05:18:40;;;;;;;12.85;11.75;;;;;;;32.85;47.47;98168.13;124829;1093;64276;-80
2021/06/22 05:21:07;;;;;;;12.00;11.00;;;;;;;32.89;47.47;98166.51;124988;1093;64574;-80
2021/06/22 05:23:34;;;;;;;13.55;12.15;;;;;;;33.05;47.50;98174.91;125413;1093;64168;-87
2021/06/22 05:26:02;;;;;;;12.73;11.57;;;;;;;33.11;47.31;98173.81;125729;1093;64319;-87
2021/06/22 05:28:29;;;;;;;12.77;11.67;;;;;;;33.35;47.24;98180.53;125407;1093;64140;-88
2021/06/22 05:30:56;;;;;;;13.05;11.95;;;;;;;33.82;47.42;98174.05;125030;1093;64268;-88
2021/06/22 05:33:24;;;;;;;13.03;11.83;;;;;;;34.11;46.25;98173.56;125076;1093;64214;-88
2021/06/22 05:35:51;;;;;;;12.90;11.73;;;;;;;34.35;46.29;98165.53;125177;1093;64287;-87
2021/06/22 05:38:19;;;;;;;12.90;11.30;;;;;;;34.35;45.52;98175.77;125084;1092;64303;-87
2021/06/22 05:40:46;;;;;;;12.23;11.13;;;;;;;34.64;45.38;98164.98;124993;1093;64350;-88
2021/06/22 05:43:13;;;;;;;11.55;10.45;;;;;;;34.74;44.38;98157.47;125232;1093;64249;-86
2021/06/22 05:45:41;;;;;;;12.47;11.23;;;;;;;34.92;44.26;98152.45;125127;1093;64281;-86
2021/06/22 05:48:08;;;;;;;12.40;11.30;;;;;;;34.95;44.00;98146.34;125088;1093;64240;-87
2021/06/22 05:50:36;;;;;;;12.97;10.87;;;;;;;35.03;43.70;98153.24;125006;1092;64303;-86
2021/06/22 05:53:03;;;;;;;11.93;10.83;;;;;;;35.14;42.78;98160.42;124927;1093;64252;-87
2021/06/22 05:55:31;;;;;;;12.10;10.90;;;;;;;35.08;43.08;98161.56;124938;1093;64325;-87
2021/06/22 05:57:59;;;;;;;14.67;11.70;;;;;;;34.99;43.44;98160.45;124974;1093;64213;-88
2021/06/22 06:00:29;;;;;;;12.90;11.77;;;;;;;34.73;43.12;98161.36;125034;1093;64291;-87
2021/06/22 06:02:57;;;;;;;14.17;11.27;;;;;;;34.76;42.87;98162.74;125020;1093;64321;-86
2021/06/22 06:05:24;;;;;;;12.37;11.43;;;;;;;34.75;43.13;98163.84;125058;1093;64347;-87
2021/06/22 06:07:53;;;;;;;13.00;11.95;;;;;;;34.86;42.68;98168.26;125097;1093;64328;-87
2021/06/22 06:10:21;;;;;;;14.07;12.13;;;;;;;34.90;42.61;98169.34;125026;1093;64191;-88
2021/06/22 06:12:49;;;;;;;12.27;10.77;;;;;;;34.89;42.34;98175.14;124957;1092;64713;-89
2021/06/22 06:15:17;;;;;;;11.70;10.70;;;;;;;34.87;42.56;98172.67;125029;1093;64284;-87
2021/06/22 06:17:45;;;;;;;11.83;10.63;;;;;;;34.98;41.93;98176.23;125119;1093;64338;-86
2021/06/22 06:20:14;;;;;;;11.30;10.30;;;;;;;34.96;42.33;98181.22;124966;1093;64279;-86
2021/06/22 06:22:43;;;;;;;11.17;10.17;;;;;;;34.99;41.86;98183.42;125038;1093;64278;-86
2021/06/22 06:25:12;;;;;;;11.50;10.40;;;;;;;34.95;42.35;98180.40;125073;1093;64287;-88
2021/06/22 06:30:18;;;;;;;11.17;10.07;;;;;;;34.95;42.12;98185.94;124932;1093;64280;-86
2021/06/22 06:32:47;;;;;;;11.25;10.35;;;;;;;35.06;42.70;98188.67;125000;1093;64267;-85
2021/06/22 06:35:16;;;;;;;12.40;11.30;;;;;;;35.15;42.26;98193.39;125748;1093;64284;-85
2021/06/22 06:37:44;;;;;;;13.33;12.07;;;;;;;35.07;42.13;98190.32;124881;1093;64325;-84
2021/06/22 06:40:12;;;;;;;12.07;11.13;;;;;;;35.15;41.91;98198.08;125620;1093;64294;-85
2021/06/22 06:42:40;;;;;;;12.17;11.00;;;;;;;35.08;41.98;98205.88;125772;1093;64377;-86
2021/06/22 06:45:09;;;;;;;12.80;11.67;;;;;;;35.14;42.61;98213.05;125562;1093;64190;-85
2021/06/22 06:47:37;;;;;;;13.87;11.40;;;;;;;35.42;42.28;98214.34;125680;1093;64244;-86
2021/06/22 06:50:06;;;;;;;13.33;12.20;;;;;;;35.44;41.86;98220.40;125518;1093;64421;-86
2021/06/22 06:52:34;;;;;;;13.07;11.37;;;;;;;35.32;41.74;98215.20;125750;1092;64229;-86
2021/06/22 06:55:01;;;;;;;12.27;11.23;;;;;;;35.48;41.87;98217.91;125332;1093;64334;-86
2021/06/22 06:57:28;;;;;;;10.60;9.80;;;;;;;35.35;41.93;98214.63;125286;1093;64248;-85
2021/06/22 06:59:56;;;;;;;11.30;10.27;;;;;;;35.49;42.50;98225.09;125767;1093;64267;-86
2021/06/22 07:02:23;;;;;;;12.75;10.55;;;;;;;35.53;41.65;98220.66;124987;1092;64541;-86
2021/06/22 07:04:51;;;;;;;11.13;10.10;;;;;;;35.59;41.84;98228.67;124901;1093;64357;-86
2021/06/22 07:07:18;;;;;;;11.77;10.73;;;;;;;35.80;41.81;98236.89;124948;1092;64341;-85
2021/06/22 07:09:45;;;;;;;12.00;10.80;;;;;;;36.02;42.18;98237.33;125052;1092;64294;-86
2021/06/22 07:12:13;;;;;;;12.03;10.87;;;;;;;36.19;41.57;98234.17;125163;1091;64284;-85
2021/06/22 07:14:40;;;;;;;11.77;10.57;;;;;;;36.20;40.76;98240.55;125327;1093;64324;-86
2021/06/22 07:17:08;;;;;;;12.05;10.85;;;;;;;35.85;40.54;98242.41;125393;1093;64418;-86
2021/06/22 07:19:35;;;;;;;12.35;10.90;;;;;;;35.23;41.35;98252.07;125748;1093;64265;-87
2021/06/22 07:22:03;;;;;;;12.40;11.20;;;;;;;34.86;41.83;98262.39;125340;1093;64195;-86
2021/06/22 07:24:30;;;;;;;11.75;10.75;;;;;;;34.66;42.22;98273.48;125515;1093;64300;-86
2021/06/22 07:26:58;;;;;;;10.57;9.47;;;;;;;34.46;41.91;98282.56;125460;1093;64191;-86
2021/06/22 07:29:25;;;;;;;11.60;10.53;;;;;;;33.99;42.35;98298.20;125162;1093;64188;-86
2021/06/22 07:31:52;;;;;;;10.47;9.63;;;;;;;33.49;42.90;98324.51;124947;1093;64370;-87
2021/06/22 07:34:19;;;;;;;11.65;10.55;;;;;;;32.82;44.20;98342.54;124999;1093;64191;-85
2021/06/22 07:36:47;;;;;;;10.85;9.70;;;;;;;32.04;44.54;98350.28;125082;1093;64274;-85
2021/06/22 07:39:14;;;;;;;11.10;9.95;;;;;;;31.06;45.83;98367.33;124876;1093;64405;-87
2021/06/22 07:41:41;;;;;;;10.83;9.73;;;;;;;30.36;46.50;98361.16;124928;1093;64415;-86
2021/06/22 07:44:09;;;;;;;12.45;10.40;;;;;;;29.98;47.45;98375.48;125075;1092;64249;-87
2021/06/22 07:46:36;;;;;;;11.80;10.80;;;;;;;29.80;48.20;98372.91;124850;1094;64268;-85
2021/06/22 07:49:03;;;;;;;11.17;10.17;;;;;;;29.76;48.31;98364.33;125033;1093;64367;-85
2021/06/22 07:51:31;;;;;;;11.90;10.73;;;;;;;29.81;48.80;98374.59;125101;1093;64210;-86
2021/06/22 07:53:58;;;;;;;12.60;11.50;;;;;;;29.78;48.64;98373.17;125263;1093;64284;-87
2021/06/22 07:56:26;;;;;;;12.83;11.67;;;;;;;29.71;48.70;98380.70;125043;1093;64165;-86
2021/06/22 07:58:53;;;;;;;12.37;11.37;;;;;;;29.61;49.12;98373.03;124977;1093;64370;-86
2021/06/22 08:01:21;;;;;;;12.43;11.30;;;;;;;29.54;50.00;98377.80;124947;1093;64326;-87
2021/06/22 08:03:48;;;;;;;12.77;11.23;;;;;;;29.40;50.00;98387.38;125176;1093;64223;-85
2021/06/22 08:06:16;;;;;;;12.60;11.60;;;;;;;29.19;50.49;98395.13;125483;1093;64298;-85
2021/06/22 08:08:43;;;;;;;11.13;10.13;;;;;;;28.99;51.11;98402.83;125685;1092;64217;-86
2021/06/22 08:11:10;;;;;;;9.97;8.03;;;;;;;28.62;51.32;98411.20;125300;1093;64290;-87
2021/06/22 08:13:38;;;;;;;9.33;8.33;;;;;;;28.33;51.26;98413.72;125062;1093;64261;-86
2021/06/22 08:16:08;;;;;;;9.00;8.10;;;;;;;28.05;51.69;98425.23;124842;1093;64393;-87
2021/06/22 08:18:36;;;;;;;10.90;9.00;;;;;;;27.64;52.96;98412.19;124889;1093;64290;-87
2021/06/22 08:21:05;;;;;;;9.05;8.15;;;;;;;27.40;53.52;98411.18;125024;1093;64268;-89
2021/06/22 08:23:33;;;;;;;9.23;7.90;;;;;;;27.11;54.07;98418.98;124884;1093;64776;-86
2021/06/22 08:26:01;;;;;;;8.97;7.70;;;;;;;26.81;54.35;98414.17;124939;1092;64271;-87
2021/06/22 08:28:28;;;;;;;9.67;6.67;;;;;;;26.52;54.83;98417.53;124803;1093;64455;-87
2021/06/22 08:30:56;;;;;;;8.30;7.13;;;;;;;26.30;55.72;98416.98;124939;1093;64464;-85
2021/06/22 08:33:23;;;;;;;7.73;6.57;;;;;;;26.08;56.17;98402.81;124954;1093;64214;-86
2021/06/22 08:35:50;;;;;;;9.35;6.95;;;;;;;25.94;56.74;98407.49;125027;1093;64294;-86
2021/06/22 08:38:18;;;;;;;7.45;6.65;;;;;;;25.79;57.45;98394.06;125041;1093;64660;-86
2021/06/22 08:40:47;;;;;;;6.80;6.20;;;;;;;25.63;57.62;98389.91;124973;1093;64408;-86
2021/06/22 08:43:16;;;;;;;6.70;5.60;;;;;;;25.54;58.05;98374.81;125004;1093;64258;-87
2021/06/22 08:45:45;;;;;;;8.10;6.67;;;;;;;25.47;58.44;98349.46;125042;1093;64338;-87
2021/06/22 08:48:14;;;;;;;7.40;6.53;;;;;;;25.46;58.39;98307.70;125003;1093;64191;-87
2021/06/22 08:50:44;;;;;;;8.30;7.05;;;;;;;25.47;59.26;98283.98;125068;1093;64260;-88
2021/06/22 08:53:14;;;;;;;9.40;6.07;;;;;;;25.44;59.05;98277.06;125007;1091;64298;-87
2021/06/22 08:55:43;;;;;;;9.60;6.97;;;;;;;25.37;59.20;98271.63;125068;1093;64405;-88
2021/06/22 08:58:13;;;;;;;7.15;6.45;;;;;;;25.38;59.75;98289.69;125247;1093;64271;-88
2021/06/22 09:00:43;;;;;;;9.07;7.80;;;;;;;25.48;60.54;98310.20;125447;1093;64244;-87
2021/06/22 09:03:17;;;;;;;7.70;7.10;;;;;;;25.49;60.95;98339.14;125183;1093;64271;-87
2021/06/22 09:05:47;;;;;;;8.63;7.33;;;;;;;25.47;61.08;98336.65;125210;1093;64310;-87
2021/06/22 09:08:19;;;;;;;7.50;6.40;;;;;;;25.50;61.25;98310.83;124990;1093;64413;-85
2021/06/22 09:10:50;;;;;;;8.27;6.13;;;;;;;25.59;60.72;98294.02;125111;1093;64207;-86
2021/06/22 09:13:20;;;;;;;7.53;5.87;;;;;;;25.73;60.90;98293.95;125110;1092;64217;-85
2021/06/22 09:15:51;;;;;;;7.43;6.23;;;;;;;25.86;60.62;98284.86;124858;1093;64271;-85
2021/06/22 09:18:23;;;;;;;7.10;6.40;;;;;;;26.08;60.81;98278.02;124917;1092;64392;-86
2021/06/22 09:20:52;;;;;;;6.87;6.17;;;;;;;26.29;60.81;98279.55;125001;1093;64398;-86
2021/06/22 09:23:23;;;;;;;7.30;6.13;;;;;;;26.45;60.38;98269.98;125097;1093;64341;-85
2021/06/22 09:25:55;;;;;;;7.20;6.40;;;;;;;26.60;60.55;98288.81;125027;1093;64184;-87
2021/06/22 09:28:28;;;;;;;8.57;7.47;;;;;;;26.69;60.58;98295.66;124968;1092;64258;-87
2021/06/22 09:31:00;;;;;;;8.13;7.20;;;;;;;26.61;60.30;98285.01;125443;1092;64261;-87
2021/06/22 09:33:48;;;;;;;7.65;6.85;;;;;;;26.62;60.68;98294.88;125206;1093;64916;-87
2021/06/22 09:36:27;;;;;;;8.43;6.57;;;;;;;26.43;59.92;98292.05;125010;1093;64367;-87
2021/06/22 09:39:08;;;;;;;7.87;6.80;;;;;;;26.32;60.03;98292.77;124999;1093;64348;-86
2021/06/22 09:41:39;;;;;;;12.00;6.47;;;;;;;26.30;60.11;98297.61;124957;1093;64310;-87
2021/06/22 09:44:12;;;;;;;8.63;6.40;;;;;;;26.39;60.14;98290.83;124963;1093;64268;-87
2021/06/22 09:46:42;;;;;;;7.80;6.93;;;;;;;26.45;60.02;98281.73;124905;1093;64367;-86
2021/06/22 09:49:31;;;;;;;6.80;6.10;;;;;;;26.57;59.60;98291.97;124865;1093;64274;-86
2021/06/22 09:52:10;;;;;;;9.18;6.38;;;;;;;26.65;59.67;98322.61;124961;1093;64313;-86
2021/06/22 09:54:49;;;;;;;6.90;5.90;;;;;;;26.63;59.46;98316.52;124858;1093;64220;-86
2021/06/22 09:57:18;;;;;;;6.67;6.03;;;;;;;26.61;59.37;98324.11;125304;1092;64227;-81
2021/06/22 09:59:45;;;;;;;;;;;;;;;26.68;59.47;98335.00;125815;1093;64284;-88
2021/06/22 10:02:13;;;;;;;7.80;7.03;;;;;;;26.72;59.92;98341.67;125588;1093;64341;-88
2021/06/22 10:04:44;;;;;;;9.97;6.20;;;;;;;26.69;59.50;98345.69;125780;1093;64316;-89
2021/06/22 10:07:14;;;;;;;7.70;6.77;;;;;;;26.60;59.79;98379.84;125106;1093;64275;-89
2021/06/22 10:09:42;;;;;;;6.80;6.20;;;;;;;26.40;60.55;98374.46;126096;1093;64271;-91
2021/06/22 10:12:13;;;;;;;8.33;7.40;;;;;;;26.30;59.99;98359.61;125404;1093;64319;-90
2021/06/22 10:14:43;;;;;;;7.87;7.00;;;;;;;26.45;60.38;98362.88;125422;1093;64279;-91
2021/06/22 10:17:21;;;;;;;7.40;6.53;;;;;;;26.63;59.96;98356.70;125603;1093;64393;-89
2021/06/22 10:19:51;;;;;;;9.27;6.80;;;;;;;26.66;59.57;98362.55;125075;1093;64351;-86
2021/06/22 10:22:23;;;;;;;9.77;6.53;;;;;;;26.64;59.97;98370.13;125032;1093;64307;-85
2021/06/22 10:25:15;;;;;;;9.33;7.73;;;;;;;26.57;59.42;98365.76;125369;1093;64350;-89
2021/06/22 10:27:43;;;;;;;7.90;7.10;;;;;;;26.58;59.80;98365.55;125611;1093;64301;-87
2021/06/22 10:30:11;;;;;;;8.10;6.70;;;;;;;26.82;59.88;98357.59;125434;1093;64299;-88
2021/06/22 10:32:39;;;;;;;7.03;6.33;;;;;;;27.03;59.07;98353.63;125252;1093;64742;-94
2021/06/22 10:35:15;;;;;;;8.13;6.80;;;;;;;27.24;57.96;98353.23;125553;1093;64306;-92
2021/06/22 10:37:56;;;;;;;7.07;6.47;;;;;;;27.46;57.72;98347.31;125637;1092;64451;-90
2021/06/22 10:40:26;;;;;;;7.07;5.77;;;;;;;27.85;57.38;98337.83;125417;1092;64642;-85
2021/06/22 10:42:57;;;;;;;8.07;6.43;;;;;;;28.23;56.81;98342.18;125114;1093;64295;-82
2021/06/22 10:45:25;;;;;;;8.50;6.50;;;;;;;28.53;55.03;98339.43;124843;1093;64271;-82
2021/06/22 10:47:59;;;;;;;7.97;6.60;;;;;;;28.61;54.79;98343.74;124847;1093;64304;-82
2021/06/22 10:50:26;;;;;;;8.73;6.20;;;;;;;28.90;55.19;98336.51;124911;1093;64425;-82
2021/06/22 10:53:00;;;;;;;7.20;6.50;;;;;;;29.20;53.26;98339.19;124887;1093;64265;-82
2021/06/22 10:55:28;;;;;;;8.80;6.90;;;;;;;29.11;53.43;98343.35;124876;1093;64216;-83
2021/06/22 10:58:11;;;;;;;11.23;6.47;;;;;;;28.96;52.92;98340.20;124907;1092;64213;-82
2021/06/22 11:00:48;;;;;;;7.57;6.47;;;;;;;29.06;53.12;98324.84;124898;1092;64217;-83
2021/06/22 11:03:24;;;;;;;9.63;6.57;;;;;;;29.08;51.90;98319.97;124896;1092;64536;-83
2021/06/22 11:06:10;;;;;;;9.40;6.63;;;;;;;28.79;51.02;98313.48;124846;1093;64251;-82
2021/06/22 11:08:41;;;;;;;7.00;5.73;;;;;;;28.64;51.77;98313.11;124865;1093;64287;-82
2021/06/22 11:11:09;;;;;;;5.70;5.10;;;;;;;28.80;51.52;98315.14;124931;1093;64293;-83
2021/06/22 11:13:57;;;;;;;8.10;6.15;;;;;;;28.99;52.09;98306.80;124901;1093;64297;-81
2021/06/22 11:16:32;;;;;;;6.60;5.97;;;;;;;28.88;51.20;98300.25;124819;1093;64344;-82
2021/06/22 11:19:04;;;;;;;7.40;6.60;;;;;;;28.88;51.44;98295.63;124837;1093;64270;-81
2021/06/22 11:21:37;;;;;;;6.90;5.93;;;;;;;29.11;52.18;98299.45;124920;1093;64366;-82
2021/06/22 11:24:16;;;;;;;7.13;6.27;;;;;;;29.23;50.66;98303.03;124881;1093;64380;-82
2021/06/22 11:26:50;;;;;;;7.23;6.47;;;;;;;29.21;51.02;98304.34;124862;1093;64351;-82